Time;durP1;ratioP1;P1;durP2;ratioP2;P2;SDS_P1;SDS_P2;PMS_P1;PMS_P2;Temp;Humidity;BMP_temperature;BMP_pressure;BME280_temperature;BME280_humidity;BME280_pressure;Samples;Min_cycle;Max_cycle;Signal;HPM_P1;HPM_P2
2022/01/24 00:01:49;;;;;;;6.13;3.40;;;5.50;82.50;;;;;;5005364;28;20559;-71
2022/01/24 00:04:15;;;;;;;8.77;4.05;;;5.40;82.40;;;;;;4998041;28;20022;-71
2022/01/24 00:06:41;;;;;;;7.65;4.93;;;5.30;82.50;;;;;;5014042;28;20451;-71
2022/01/24 00:09:08;;;;;;;6.68;3.67;;;5.30;82.60;;;;;;5000979;28;20035;-71
2022/01/24 00:27:10;;;;;;;7.80;4.35;;;5.50;83.20;;;;;;5000844;28;20045;-72
2022/01/24 00:29:36;;;;;;;9.82;5.18;;;5.50;82.80;;;;;;4999314;28;20022;-71
2022/01/24 00:32:02;;;;;;;9.98;5.30;;;5.40;82.30;;;;;;5000865;28;20082;-71
2022/01/24 00:34:28;;;;;;;9.55;5.13;;;5.30;82.30;;;;;;4998124;28;20029;-71
2022/01/24 00:36:54;;;;;;;10.07;5.57;;;5.30;83.20;;;;;;4997021;28;20058;-72
2022/01/24 00:39:21;;;;;;;11.00;5.80;;;5.30;82.70;;;;;;4998629;28;20378;-71
2022/01/24 00:42:01;;;;;;;10.60;5.57;;;5.20;82.80;;;;;;4999225;28;20046;-72
2022/01/24 00:47:04;;;;;;;9.57;6.00;;;5.30;83.30;;;;;;4996600;28;20023;-71
2022/01/24 00:54:52;;;;;;;10.63;5.97;;;5.30;82.40;;;;;;5010181;28;20037;-71
2022/01/24 00:57:19;;;;;;;7.75;4.85;;;5.30;82.80;;;;;;4995742;28;20031;-72
2022/01/24 00:59:48;;;;;;;9.15;5.15;;;5.30;83.10;;;;;;4996185;28;20080;-72
2022/01/24 01:02:15;;;;;;;12.15;6.25;;;5.40;82.70;;;;;;5002951;28;20073;-71
2022/01/24 01:07:07;;;;;;;10.93;5.63;;;5.40;82.80;;;;;;4995390;28;20112;-71
2022/01/24 01:20:47;;;;;;;8.38;5.00;;;5.30;82.30;;;;;;4995750;28;20037;-71
2022/01/24 01:23:13;;;;;;;10.20;6.25;;;5.50;83.10;;;;;;4996009;28;20100;-71
2022/01/24 01:25:41;;;;;;;10.13;5.45;;;5.50;82.10;;;;;;4996046;28;20076;-72
2022/01/24 01:28:06;;;;;;;10.80;5.47;;;5.50;82.30;;;;;;4995078;28;20021;-71
2022/01/24 01:30:43;;;;;;;11.68;6.25;;;5.50;82.20;;;;;;4994032;28;20068;-72
2022/01/24 01:33:59;;;;;;;11.50;6.13;;;5.50;82.20;;;;;;5009695;28;20032;-72
2022/01/24 01:36:25;;;;;;;9.10;5.45;;;5.60;82.40;;;;;;4952944;28;1129863;-71
2022/01/24 01:53:04;;;;;;;9.77;5.60;;;5.60;81.70;;;;;;4998305;28;20060;-72
2022/01/24 01:55:38;;;;;;;10.35;5.10;;;5.60;81.80;;;;;;4996458;28;20037;-71
2022/01/24 01:58:08;;;;;;;8.98;5.25;;;5.60;81.70;;;;;;4998221;28;20036;-72
2022/01/24 02:00:36;;;;;;;8.40;5.18;;;5.60;81.80;;;;;;5007352;28;20103;-72
2022/01/24 02:03:02;;;;;;;10.52;5.88;;;5.70;81.60;;;;;;5001935;28;20030;-72
2022/01/24 02:05:27;;;;;;;10.88;5.72;;;5.60;81.50;;;;;;5006126;28;20532;-72
2022/01/24 02:07:53;;;;;;;9.20;5.35;;;5.60;81.70;;;;;;5003154;28;20027;-72
2022/01/24 02:10:22;;;;;;;9.80;5.38;;;5.60;81.70;;;;;;5007847;28;20025;-72
2022/01/24 02:12:49;;;;;;;8.63;5.38;;;5.60;81.50;;;;;;5011678;28;20034;-71
2022/01/24 02:15:23;;;;;;;8.90;5.15;;;5.70;81.60;;;;;;4995477;28;20097;-72
2022/01/24 02:18:02;;;;;;;11.23;5.50;;;5.70;81.40;;;;;;4995992;28;20037;-72
2022/01/24 02:26:06;;;;;;;9.68;5.43;;;5.60;81.40;;;;;;4949689;29;20398;-72
2022/01/24 02:31:46;;;;;;;10.73;4.85;;;5.60;81.20;;;;;;4930496;29;20064;-72
2022/01/24 02:34:19;;;;;;;8.38;5.07;;;5.60;81.10;;;;;;4952134;29;20143;-72
2022/01/24 02:36:45;;;;;;;11.70;5.25;;;5.60;81.40;;;;;;4945827;29;20521;-71
2022/01/24 02:39:43;;;;;;;8.93;4.75;;;5.60;81.10;;;;;;4951575;29;20028;-70
2022/01/24 02:50:53;;;;;;;8.52;4.63;;;5.50;81.20;;;;;;4944355;29;20517;-71
2022/01/24 02:53:19;;;;;;;8.38;5.03;;;5.50;81.30;;;;;;4951540;29;20031;-72
2022/01/24 02:55:45;;;;;;;8.85;4.97;;;5.50;81.50;;;;;;4932373;29;20419;-72
2022/01/24 02:58:11;;;;;;;8.95;5.28;;;5.50;81.30;;;;;;4935952;29;20027;-72
2022/01/24 03:00:38;;;;;;;10.18;5.18;;;5.50;82.30;;;;;;4941886;28;20563;-73
2022/01/24 03:03:04;;;;;;;8.65;4.78;;;5.50;81.30;;;;;;4995248;28;20034;-72
2022/01/24 03:05:31;;;;;;;9.57;5.05;;;5.50;81.20;;;;;;4995500;28;20547;-72
2022/01/24 03:07:56;;;;;;;9.20;5.13;;;5.50;81.40;;;;;;4995344;28;20057;-72
2022/01/24 03:10:28;;;;;;;9.13;5.43;;;5.50;81.30;;;;;;4995411;28;20057;-72
2022/01/24 03:15:38;;;;;;;;;;;5.50;81.20;;;;;;4997806;28;20037;-73
2022/01/24 03:18:05;;;;;;;8.60;4.68;;;5.50;81.20;;;;;;4997878;28;19914;-72
2022/01/24 03:20:30;;;;;;;9.07;5.25;;;5.50;81.00;;;;;;4995107;28;20041;-73
2022/01/24 03:22:56;;;;;;;9.10;5.28;;;5.40;81.00;;;;;;5001188;28;20018;-73
2022/01/24 03:25:22;;;;;;;9.27;5.18;;;5.40;80.80;;;;;;5009785;28;20108;-72
2022/01/24 03:27:47;;;;;;;9.73;5.15;;;5.40;80.90;;;;;;5011477;28;20025;-72
2022/01/24 03:30:13;;;;;;;9.57;5.15;;;5.40;80.90;;;;;;4994684;28;20078;-72
2022/01/24 03:32:38;;;;;;;10.20;5.10;;;5.40;81.20;;;;;;4998300;28;20062;-73
2022/01/24 03:35:07;;;;;;;11.93;5.10;;;5.40;81.10;;;;;;4997227;28;20576;-72
2022/01/24 03:37:34;;;;;;;8.55;4.60;;;5.40;80.90;;;;;;4995879;28;20065;-73
2022/01/24 03:40:00;;;;;;;8.80;5.10;;;5.40;80.90;;;;;;4994855;28;20034;-72
2022/01/24 03:42:26;;;;;;;8.90;4.82;;;5.30;81.80;;;;;;4996227;28;20093;-72
2022/01/24 03:44:56;;;;;;;7.28;4.53;;;5.30;81.10;;;;;;4997560;28;20031;-72
2022/01/24 03:50:04;;;;;;;9.05;4.57;;;5.40;81.30;;;;;;4997171;28;20030;-73
2022/01/24 03:52:33;;;;;;;10.35;4.97;;;5.30;81.00;;;;;;4995653;28;20027;-73
2022/01/24 03:55:02;;;;;;;9.15;4.78;;;5.40;81.30;;;;;;4994953;28;20041;-73
2022/01/24 03:57:28;;;;;;;9.13;5.28;;;5.30;81.20;;;;;;4998594;28;20018;-72
2022/01/24 03:59:54;;;;;;;8.02;5.13;;;5.30;81.00;;;;;;4999445;28;20097;-73
2022/01/24 04:02:22;;;;;;;8.10;4.50;;;5.30;81.30;;;;;;4996240;28;20113;-73
2022/01/24 04:04:48;;;;;;;7.90;4.97;;;5.30;81.10;;;;;;4997505;28;20053;-72
2022/01/24 04:07:14;;;;;;;9.23;5.30;;;5.30;81.10;;;;;;4993159;28;20038;-73
2022/01/24 04:09:41;;;;;;;8.50;5.70;;;5.30;81.30;;;;;;4996489;28;20117;-73
2022/01/24 04:12:09;;;;;;;8.60;5.38;;;5.30;81.10;;;;;;4997191;28;20404;-72
2022/01/24 04:22:14;;;;;;;10.35;5.53;;;5.10;80.90;;;;;;4993339;28;20038;-72
2022/01/24 04:24:42;;;;;;;9.43;5.25;;;5.10;81.30;;;;;;5009831;28;20369;-73
2022/01/24 04:27:09;;;;;;;9.55;5.05;;;5.10;81.20;;;;;;4996642;28;20056;-73
2022/01/24 04:29:35;;;;;;;12.60;5.68;;;5.00;81.30;;;;;;4998265;28;20034;-73
2022/01/24 04:32:01;;;;;;;9.85;5.40;;;5.00;81.40;;;;;;4998757;28;20026;-73
2022/01/24 04:34:27;;;;;;;10.75;5.53;;;5.00;81.40;;;;;;5011302;28;20037;-73
2022/01/24 04:36:52;;;;;;;9.15;4.95;;;5.00;81.20;;;;;;4995980;28;20054;-73
2022/01/24 04:39:19;;;;;;;11.02;5.80;;;5.00;81.40;;;;;;5014350;28;20036;-72
2022/01/24 04:41:48;;;;;;;11.63;5.20;;;4.90;81.10;;;;;;5000463;28;20045;-72
2022/01/24 04:52:09;;;;;;;8.73;4.75;;;4.90;81.40;;;;;;5011523;28;20072;-73
2022/01/24 04:54:40;;;;;;;9.70;5.30;;;4.90;81.70;;;;;;4999029;28;20532;-72
2022/01/24 04:57:12;;;;;;;10.57;4.95;;;4.90;81.80;;;;;;5000132;28;20057;-73
2022/01/24 04:59:39;;;;;;;8.95;5.25;;;4.90;81.60;;;;;;5000162;28;20022;-71
2022/01/24 05:02:05;;;;;;;9.10;5.07;;;4.80;81.40;;;;;;5000471;28;20038;-71
2022/01/24 05:04:31;;;;;;;9.30;5.25;;;4.80;81.40;;;;;;4998038;28;20026;-71
2022/01/24 05:06:57;;;;;;;10.40;5.15;;;4.80;81.50;;;;;;4998020;28;20029;-71
2022/01/24 05:09:23;;;;;;;9.38;5.00;;;4.80;81.40;;;;;;4999114;28;20045;-71
2022/01/24 05:11:59;;;;;;;11.18;5.72;;;4.70;81.50;;;;;;5000203;28;20500;-71
2022/01/24 05:25:21;;;;;;;8.07;4.53;;;4.80;81.40;;;;;;5009472;28;20129;-72
2022/01/24 05:27:47;;;;;;;8.02;4.45;;;4.80;81.50;;;;;;5006694;28;20512;-72
2022/01/24 05:30:14;;;;;;;9.25;4.88;;;4.80;81.40;;;;;;4995710;28;20420;-72
2022/01/24 05:32:40;;;;;;;9.10;5.25;;;4.90;81.50;;;;;;5000287;28;20118;-73
2022/01/24 05:35:06;;;;;;;7.97;4.70;;;4.80;81.20;;;;;;4995607;28;20109;-72
2022/01/24 05:37:32;;;;;;;9.18;5.15;;;4.80;81.10;;;;;;4996280;28;20491;-72
2022/01/24 05:39:57;;;;;;;10.48;5.40;;;4.80;81.10;;;;;;4994971;28;20368;-72
2022/01/24 05:42:23;;;;;;;10.18;4.88;;;4.80;81.40;;;;;;4996384;28;20091;-72
2022/01/24 05:44:49;;;;;;;9.38;5.28;;;4.80;81.20;;;;;;5000013;28;20026;-71
2022/01/24 05:47:16;;;;;;;10.82;5.45;;;4.80;81.30;;;;;;5004669;28;20038;-73
2022/01/24 05:49:42;;;;;;;7.93;4.68;;;4.80;81.40;;;;;;5005537;28;20069;-73
2022/01/24 05:52:09;;;;;;;10.48;5.75;;;4.70;81.50;;;;;;5012929;28;20488;-72
2022/01/24 05:54:36;;;;;;;8.40;5.07;;;4.70;81.30;;;;;;4994501;28;20033;-73
2022/01/24 05:57:03;;;;;;;11.77;6.20;;;4.70;81.40;;;;;;4996465;28;20033;-72
2022/01/24 05:59:29;;;;;;;11.27;5.25;;;4.70;81.30;;;;;;4995258;28;20026;-73
2022/01/24 06:01:54;;;;;;;9.50;5.60;;;4.70;81.50;;;;;;4996428;28;20034;-73
2022/01/24 06:04:20;;;;;;;9.40;5.13;;;4.70;81.60;;;;;;4996531;28;20026;-73
2022/01/24 06:06:45;;;;;;;8.27;5.10;;;4.70;81.20;;;;;;4993932;28;20026;-72
2022/01/24 06:09:11;;;;;;;9.23;5.10;;;4.60;81.50;;;;;;4999738;28;20030;-73
2022/01/24 06:11:36;;;;;;;10.48;5.57;;;4.70;81.50;;;;;;4997689;28;20034;-73
2022/01/24 06:14:03;;;;;;;10.02;5.43;;;4.70;81.60;;;;;;4997033;28;20050;-74
2022/01/24 06:16:29;;;;;;;8.85;5.30;;;4.70;81.50;;;;;;4996361;28;20030;-72
2022/01/24 06:18:55;;;;;;;10.65;5.70;;;4.70;81.30;;;;;;4996330;28;20024;-72
2022/01/24 06:21:21;;;;;;;9.45;5.43;;;4.80;81.40;;;;;;4997868;28;20528;-73
2022/01/24 06:23:46;;;;;;;9.65;5.57;;;4.70;81.30;;;;;;4998918;28;20030;-73
2022/01/24 06:26:13;;;;;;;9.75;5.03;;;4.70;81.30;;;;;;4996641;28;20492;-73
2022/01/24 06:28:39;;;;;;;10.80;5.75;;;4.70;81.40;;;;;;4994852;28;20121;-73
2022/01/24 06:31:05;;;;;;;11.10;6.03;;;4.70;81.10;;;;;;4994855;28;20114;-72
2022/01/24 06:33:31;;;;;;;10.57;6.05;;;4.70;81.30;;;;;;4993386;28;20022;-72
2022/01/24 06:35:56;;;;;;;8.55;4.95;;;4.70;81.30;;;;;;4995327;28;20050;-73
2022/01/24 06:38:22;;;;;;;11.07;5.40;;;4.70;81.30;;;;;;4995622;28;20069;-73
2022/01/24 06:40:48;;;;;;;10.57;5.53;;;4.70;81.30;;;;;;4995795;28;20093;-73
2022/01/24 06:43:13;;;;;;;10.45;5.82;;;4.70;81.10;;;;;;4995908;28;20489;-72
2022/01/24 06:45:39;;;;;;;10.63;5.70;;;4.70;81.20;;;;;;5008502;28;20148;-73
2022/01/24 06:48:05;;;;;;;10.43;5.88;;;4.70;81.20;;;;;;4995639;28;20041;-73
2022/01/24 06:50:30;;;;;;;10.55;5.80;;;4.70;81.30;;;;;;4995312;28;20027;-73
2022/01/24 06:52:56;;;;;;;11.95;6.07;;;4.70;81.40;;;;;;4994374;28;20045;-73
2022/01/24 06:55:22;;;;;;;10.75;5.85;;;4.70;81.20;;;;;;4995679;28;20512;-73
2022/01/24 06:57:47;;;;;;;10.43;5.97;;;4.70;81.00;;;;;;4993281;28;20039;-73
2022/01/24 07:00:13;;;;;;;10.57;5.78;;;4.70;81.30;;;;;;4995208;28;20096;-72
2022/01/24 07:02:39;;;;;;;12.50;6.43;;;4.70;81.20;;;;;;4995243;28;20034;-72
2022/01/24 07:05:05;;;;;;;11.55;6.43;;;4.70;81.20;;;;;;4999655;28;20084;-72
2022/01/24 07:07:33;;;;;;;11.10;5.97;;;4.70;80.90;;;;;;4996195;28;20041;-72
2022/01/24 07:09:59;;;;;;;12.15;6.25;;;4.70;81.30;;;;;;4995545;28;20106;-72
2022/01/24 07:12:24;;;;;;;10.05;5.53;;;4.70;81.10;;;;;;4997199;28;20109;-72
2022/01/24 07:14:50;;;;;;;13.85;6.60;;;4.70;81.00;;;;;;4995246;28;20549;-73
2022/01/24 07:19:42;;;;;;;9.95;5.65;;;4.70;81.00;;;;;;4994511;28;20061;-73
2022/01/24 07:22:08;;;;;;;10.43;6.03;;;4.60;80.60;;;;;;4994181;28;20077;-73
2022/01/24 07:24:34;;;;;;;11.55;6.25;;;4.60;80.60;;;;;;4993567;28;20019;-73
2022/01/24 07:27:00;;;;;;;9.77;5.65;;;4.60;80.80;;;;;;4995006;28;20093;-73
2022/01/24 07:29:26;;;;;;;11.73;6.70;;;4.60;80.90;;;;;;4995029;28;20056;-73
2022/01/24 07:31:52;;;;;;;10.52;5.53;;;4.50;80.60;;;;;;4994884;28;20027;-73
2022/01/24 07:34:18;;;;;;;10.18;5.28;;;4.50;81.00;;;;;;4993404;28;20030;-72
2022/01/24 07:36:44;;;;;;;13.00;5.55;;;4.60;81.00;;;;;;4992676;28;20039;-73
2022/01/24 07:39:10;;;;;;;11.18;6.10;;;4.50;80.90;;;;;;4998316;28;20026;-73
2022/01/24 07:41:42;;;;;;;11.80;5.95;;;4.50;81.00;;;;;;4995131;28;20062;-72
2022/01/24 07:44:08;;;;;;;12.02;6.38;;;4.60;81.00;;;;;;4995074;28;20023;-71
2022/01/24 07:46:34;;;;;;;11.85;6.43;;;4.60;80.90;;;;;;4996137;28;20042;-72
2022/01/24 07:49:06;;;;;;;11.63;6.35;;;4.60;81.10;;;;;;4993308;28;20018;-73
2022/01/24 07:51:32;;;;;;;11.30;6.05;;;4.60;80.80;;;;;;4996685;28;20523;-72
2022/01/24 07:53:57;;;;;;;10.85;5.93;;;4.60;80.90;;;;;;4995013;28;20026;-73
2022/01/24 07:56:23;;;;;;;11.30;6.28;;;4.60;80.70;;;;;;4996220;28;20088;-73
2022/01/24 07:58:49;;;;;;;13.68;6.53;;;4.60;80.70;;;;;;4995296;28;20031;-73
2022/01/24 08:01:15;;;;;;;11.45;6.68;;;4.60;81.00;;;;;;4997893;28;20038;-73
2022/01/24 08:03:42;;;;;;;12.38;6.32;;;4.60;80.80;;;;;;5006601;28;20027;-73
2022/01/24 08:06:08;;;;;;;12.23;6.55;;;4.70;81.10;;;;;;4998335;28;20077;-72
2022/01/24 08:08:34;;;;;;;11.68;6.57;;;4.80;81.30;;;;;;4998111;28;20014;-73
2022/01/24 08:10:59;;;;;;;13.02;6.78;;;4.90;81.30;;;;;;5001968;28;20033;-73
2022/01/24 08:13:25;;;;;;;12.30;6.25;;;5.00;81.40;;;;;;4998490;28;20570;-73
2022/01/24 08:15:51;;;;;;;10.90;6.00;;;5.20;81.00;;;;;;4999589;28;20397;-72
2022/01/24 08:18:17;;;;;;;11.13;6.25;;;5.30;80.90;;;;;;4997814;28;20061;-73
2022/01/24 08:20:42;;;;;;;12.13;6.65;;;5.40;80.70;;;;;;4999872;28;20031;-73
2022/01/24 08:23:09;;;;;;;13.57;6.82;;;5.60;80.80;;;;;;5010928;28;20048;-73
2022/01/24 08:25:35;;;;;;;13.40;7.38;;;5.80;80.50;;;;;;5012553;28;20040;-72
2022/01/24 08:28:00;;;;;;;14.82;8.10;;;5.90;79.90;;;;;;5001236;28;20030;-73
2022/01/24 08:30:26;;;;;;;12.88;7.38;;;6.10;79.80;;;;;;5013132;28;20492;-71
2022/01/24 08:32:52;;;;;;;13.60;7.47;;;6.20;79.10;;;;;;5009253;28;20078;-76
2022/01/24 08:35:20;;;;;;;13.50;7.85;;;6.40;78.70;;;;;;4990245;28;20065;-66
2022/01/24 08:37:46;;;;;;;17.20;8.75;;;6.50;78.60;;;;;;4996296;28;20504;-66
2022/01/24 08:40:21;;;;;;;14.20;8.38;;;6.50;78.00;;;;;;5004575;28;20034;-66
2022/01/24 08:42:56;;;;;;;13.68;8.07;;;6.60;78.20;;;;;;4998613;28;20022;-66
2022/01/24 08:48:28;;;;;;;14.70;9.05;;;6.70;78.10;;;;;;4928976;29;20035;-69
2022/01/24 08:50:55;;;;;;;14.65;8.57;;;6.80;77.40;;;;;;4928548;29;20039;-69
2022/01/24 08:53:23;;;;;;;14.93;8.10;;;7.00;77.50;;;;;;4932451;29;20043;-72
2022/01/24 08:55:49;;;;;;;16.13;8.38;;;7.10;77.00;;;;;;4928681;29;20554;-66
2022/01/24 08:58:15;;;;;;;16.90;9.02;;;7.30;76.60;;;;;;4933256;29;20126;-73
2022/01/24 09:00:45;;;;;;;13.40;8.18;;;7.50;76.40;;;;;;4929210;29;20043;-68
2022/01/24 09:03:14;;;;;;;15.73;8.75;;;7.80;75.90;;;;;;4931572;29;20031;-71
2022/01/24 09:05:40;;;;;;;16.88;9.40;;;8.00;75.20;;;;;;4926561;29;20038;-75
2022/01/24 09:08:06;;;;;;;15.98;8.88;;;8.20;74.10;;;;;;4935716;29;20036;-76
2022/01/24 09:10:34;;;;;;;16.23;9.27;;;8.50;73.90;;;;;;4932183;29;20031;-76
2022/01/24 09:13:00;;;;;;;17.33;10.18;;;8.60;72.80;;;;;;4930573;29;20118;-76
2022/01/24 09:15:26;;;;;;;17.52;9.88;;;8.90;72.90;;;;;;4931496;29;20110;-77
2022/01/24 09:17:51;;;;;;;18.60;9.98;;;9.10;71.20;;;;;;4913930;29;20036;-76
2022/01/24 09:20:17;;;;;;;17.88;10.40;;;9.20;70.20;;;;;;4997079;28;20046;-77
2022/01/24 09:22:45;;;;;;;17.20;10.02;;;9.20;69.20;;;;;;5010777;28;20042;-76
2022/01/24 09:25:12;;;;;;;16.45;9.48;;;9.50;70.50;;;;;;5012525;28;20030;-76
2022/01/24 09:27:39;;;;;;;18.70;10.60;;;9.70;69.80;;;;;;5008844;28;20404;-73
2022/01/24 09:30:07;;;;;;;17.25;10.57;;;9.80;68.10;;;;;;4996915;28;20033;-71
2022/01/24 09:32:33;;;;;;;17.45;10.75;;;9.80;68.70;;;;;;5004099;28;20404;-70
2022/01/24 09:34:59;;;;;;;17.30;10.35;;;10.00;68.60;;;;;;4998390;28;20037;-77
2022/01/24 09:37:25;;;;;;;16.65;10.80;;;10.10;68.60;;;;;;5011354;28;20034;-77
2022/01/24 09:39:50;;;;;;;19.13;11.32;;;10.20;68.00;;;;;;5008476;28;20460;-78
2022/01/24 09:42:17;;;;;;;18.15;10.73;;;10.20;66.20;;;;;;5007539;28;20042;-81
2022/01/24 09:44:44;;;;;;;17.73;10.60;;;10.30;67.20;;;;;;5007851;28;20484;-79
2022/01/24 09:47:15;;;;;;;17.67;10.90;;;9.90;66.50;;;;;;5009159;28;20038;-81
2022/01/24 09:49:40;;;;;;;18.30;11.48;;;10.10;67.10;;;;;;4996045;28;20022;-70
2022/01/24 09:52:06;;;;;;;18.35;11.30;;;10.10;66.00;;;;;;5011083;28;20369;-72
2022/01/24 09:54:32;;;;;;;19.92;10.88;;;10.10;66.60;;;;;;5007609;28;20017;-73
2022/01/24 09:56:57;;;;;;;19.08;10.57;;;10.30;67.50;;;;;;5007811;28;20116;-72
2022/01/24 09:59:23;;;;;;;18.95;11.48;;;10.30;66.00;;;;;;5007386;28;20018;-72
2022/01/24 10:01:49;;;;;;;17.08;10.88;;;10.30;66.30;;;;;;5006812;28;20038;-80
2022/01/24 10:04:20;;;;;;;17.20;11.10;;;10.50;66.70;;;;;;5012256;28;20034;-74
2022/01/24 10:07:06;;;;;;;18.23;11.13;;;10.70;67.40;;;;;;5008852;28;20104;-76
2022/01/24 10:09:51;;;;;;;16.58;10.52;;;10.70;65.80;;;;;;4996713;28;20018;-78
2022/01/24 10:17:41;;;;;;;18.13;11.07;;;10.90;63.10;;;;;;5004173;28;20088;-74
2022/01/24 10:20:29;;;;;;;19.08;11.00;;;10.60;64.10;;;;;;4999404;28;20783;-72
2022/01/24 10:23:18;;;;;;;19.33;11.60;;;10.70;65.20;;;;;;5003717;28;20433;-72
2022/01/24 10:25:55;;;;;;;18.27;10.73;;;10.60;64.40;;;;;;5007872;28;20035;-76
2022/01/24 10:28:26;;;;;;;17.00;10.75;;;10.60;65.70;;;;;;5005614;28;20096;-74
2022/01/24 10:31:18;;;;;;;17.55;11.15;;;10.80;66.50;;;;;;5007399;28;20472;-74
2022/01/24 10:33:52;;;;;;;17.52;10.68;;;10.80;64.30;;;;;;5008579;28;20026;-74
2022/01/24 10:36:32;;;;;;;18.10;11.32;;;10.90;64.90;;;;;;5006710;28;20050;-74
2022/01/24 10:39:43;;;;;;;18.23;11.05;;;11.00;64.20;;;;;;5007083;28;20117;-76
2022/01/24 10:44:56;;;;;;;18.35;10.82;;;11.20;64.40;;;;;;5004527;28;20118;-77
2022/01/24 10:47:27;;;;;;;16.65;10.52;;;11.10;63.40;;;;;;5004203;28;20034;-77
2022/01/24 10:49:52;;;;;;;18.33;11.07;;;11.10;63.20;;;;;;4996505;28;20034;-79
2022/01/24 10:52:22;;;;;;;17.92;10.88;;;10.80;62.50;;;;;;5010759;28;20072;-81
2022/01/24 10:54:51;;;;;;;19.20;11.40;;;10.80;63.00;;;;;;4995952;28;20038;-74
2022/01/24 10:57:28;;;;;;;15.85;9.68;;;10.70;64.10;;;;;;5006178;28;20018;-72
2022/01/24 11:00:04;;;;;;;17.25;11.00;;;10.80;64.00;;;;;;5006585;28;20034;-69
2022/01/24 11:02:40;;;;;;;18.42;11.20;;;10.80;63.40;;;;;;5003484;28;20034;-68
2022/01/24 11:05:15;;;;;;;17.58;10.60;;;10.80;63.90;;;;;;5004982;28;22006;-68
2022/01/24 11:07:52;;;;;;;17.75;10.77;;;11.00;64.30;;;;;;4995252;28;20034;-71
2022/01/24 11:10:18;;;;;;;16.67;11.07;;;11.00;63.10;;;;;;4996206;28;20523;-71
2022/01/24 11:12:44;;;;;;;15.15;9.57;;;11.30;63.90;;;;;;5010102;28;20133;-67
2022/01/24 11:15:11;;;;;;;15.93;10.45;;;11.10;63.10;;;;;;5010199;28;20033;-70
2022/01/24 11:17:37;;;;;;;15.75;9.38;;;11.30;61.60;;;;;;5004172;28;20025;-72
2022/01/24 11:20:04;;;;;;;15.60;9.85;;;11.20;62.60;;;;;;5010342;28;20052;-72
2022/01/24 11:22:33;;;;;;;13.38;9.23;;;11.40;63.30;;;;;;5011617;28;21342;-71
2022/01/24 11:25:05;;;;;;;17.92;10.20;;;11.30;62.00;;;;;;5016454;28;20014;-68
2022/01/24 11:27:32;;;;;;;15.93;9.15;;;11.40;62.30;;;;;;5020582;28;20048;-69
2022/01/24 11:30:08;;;;;;;15.95;9.73;;;11.30;61.70;;;;;;5014904;28;20029;-70
2022/01/24 11:32:38;;;;;;;14.45;9.30;;;11.40;63.40;;;;;;5016742;28;20474;-66
2022/01/24 11:35:05;;;;;;;13.27;9.02;;;11.70;63.10;;;;;;5010526;28;20033;-70
2022/01/24 11:37:37;;;;;;;16.10;10.05;;;11.80;62.90;;;;;;5012497;28;20088;-69
2022/01/24 11:40:43;;;;;;;15.05;9.38;;;11.80;62.10;;;;;;5012937;28;20045;-68
2022/01/24 11:43:26;;;;;;;16.70;9.98;;;12.10;62.50;;;;;;5011056;28;20041;-67
2022/01/24 11:49:21;;;;;;;14.23;9.23;;;12.50;62.30;;;;;;4983484;28;20032;-70
2022/01/24 11:51:49;;;;;;;14.00;9.85;;;12.50;60.80;;;;;;5002804;28;20041;-68
2022/01/24 11:54:43;;;;;;;15.18;9.82;;;12.30;61.70;;;;;;5012722;28;20029;-70
2022/01/24 11:57:22;;;;;;;;;;;12.20;62.70;;;;;;5010598;28;20412;-71
2022/01/24 11:59:49;;;;;;;14.02;8.48;;;12.20;62.90;;;;;;5000507;28;19913;-71
2022/01/24 12:02:22;;;;;;;12.95;8.80;;;12.40;61.80;;;;;;5007453;28;20054;-70
2022/01/24 12:04:59;;;;;;;11.48;8.10;;;12.80;62.70;;;;;;5012277;28;21021;-68
2022/01/24 12:07:26;;;;;;;12.27;8.45;;;13.00;60.70;;;;;;5009826;28;20128;-68
2022/01/24 12:09:55;;;;;;;15.13;8.88;;;13.10;60.10;;;;;;5001228;28;20021;-69
2022/01/24 12:12:46;;;;;;;12.45;8.38;;;13.20;60.60;;;;;;5010465;28;20026;-70
2022/01/24 12:15:37;;;;;;;12.80;8.68;;;13.30;60.80;;;;;;5005372;28;20022;-71
2022/01/24 12:18:42;;;;;;;12.90;8.75;;;13.40;60.10;;;;;;5008778;28;20030;-70
2022/01/24 12:21:13;;;;;;;14.68;8.30;;;13.50;60.00;;;;;;5002827;28;20057;-70
2022/01/24 12:23:46;;;;;;;15.25;8.75;;;13.80;60.20;;;;;;5003561;28;20029;-72
2022/01/24 12:26:14;;;;;;;13.48;9.23;;;14.00;59.30;;;;;;5011322;28;20030;-73
2022/01/24 12:28:43;;;;;;;14.93;9.00;;;13.80;58.40;;;;;;5010016;28;20046;-72
2022/01/24 12:31:10;;;;;;;12.15;8.45;;;13.70;58.10;;;;;;5013358;28;20040;-72
2022/01/24 12:33:42;;;;;;;13.00;8.73;;;13.80;58.70;;;;;;4999880;28;20034;-68
2022/01/24 12:36:14;;;;;;;14.02;8.90;;;13.90;57.80;;;;;;5009735;28;20049;-71
2022/01/24 12:38:46;;;;;;;13.15;8.80;;;13.60;57.00;;;;;;5004065;28;20038;-69
2022/01/24 12:41:20;;;;;;;14.13;9.20;;;13.50;58.40;;;;;;5008614;28;20033;-75
2022/01/24 12:46:26;;;;;;;13.13;8.55;;;13.80;58.60;;;;;;4997205;28;20034;-71
2022/01/24 12:48:53;;;;;;;12.68;8.25;;;13.80;57.40;;;;;;5010731;28;20064;-73
2022/01/24 12:51:21;;;;;;;12.68;8.73;;;14.00;58.30;;;;;;5002128;28;20042;-75
2022/01/24 12:53:48;;;;;;;14.48;8.25;;;14.10;57.50;;;;;;5005816;28;20034;-75
2022/01/24 12:56:15;;;;;;;12.68;8.43;;;13.80;56.10;;;;;;5009540;28;20022;-76
2022/01/24 12:58:46;;;;;;;12.23;8.20;;;13.90;57.90;;;;;;4997844;28;20046;-74
2022/01/24 13:01:21;;;;;;;12.20;7.97;;;14.60;59.20;;;;;;4996869;28;20042;-73
2022/01/24 13:03:48;;;;;;;11.70;7.63;;;14.90;57.60;;;;;;5000226;28;20089;-67
2022/01/24 13:06:15;;;;;;;13.82;8.65;;;14.60;54.10;;;;;;4999501;28;20034;-73
2022/01/24 13:08:59;;;;;;;11.95;7.88;;;14.70;56.80;;;;;;5003745;28;20026;-74
2022/01/24 13:11:28;;;;;;;11.77;8.20;;;15.50;57.30;;;;;;5007632;28;20030;-72
2022/01/24 13:14:13;;;;;;;13.68;8.25;;;15.30;54.40;;;;;;4999844;28;20031;-71
2022/01/24 13:25:36;;;;;;;13.20;7.88;;;15.80;53.80;;;;;;4958894;28;20078;-71
2022/01/24 13:28:05;;;;;;;11.43;8.27;;;16.70;54.00;;;;;;4956246;28;20050;-71
2022/01/24 13:30:31;;;;;;;10.63;7.28;;;15.80;50.70;;;;;;4972402;28;20082;-73
2022/01/24 13:33:02;;;;;;;11.88;7.40;;;15.40;52.80;;;;;;4962839;28;20158;-74
2022/01/24 13:35:33;;;;;;;11.73;7.47;;;15.20;53.20;;;;;;4968113;28;20386;-77
2022/01/24 13:38:01;;;;;;;11.07;7.63;;;14.50;52.20;;;;;;4972993;28;20039;-79
2022/01/24 13:40:56;;;;;;;11.45;7.88;;;13.90;53.10;;;;;;4962582;28;20037;-77
2022/01/24 13:43:46;;;;;;;12.00;7.53;;;13.40;54.10;;;;;;4951161;28;20039;-76
2022/01/24 13:46:16;;;;;;;11.32;7.40;;;13.20;55.60;;;;;;4955525;28;20126;-70
2022/01/24 13:48:48;;;;;;;13.57;8.32;;;13.10;56.00;;;;;;4953783;28;20035;-70
2022/01/24 13:51:17;;;;;;;12.18;8.07;;;12.90;55.80;;;;;;4968465;28;20466;-70
2022/01/24 13:53:51;;;;;;;11.90;8.18;;;12.80;57.00;;;;;;4968848;28;20547;-70
2022/01/24 13:56:20;;;;;;;;;;;12.70;56.90;;;;;;4969388;28;20031;-70
2022/01/24 13:59:03;;;;;;;12.32;8.10;;;12.60;57.80;;;;;;4970974;28;20388;-78
2022/01/24 14:01:29;;;;;;;10.93;7.32;;;12.40;58.00;;;;;;4982213;28;20658;-77
2022/01/24 14:03:59;;;;;;;10.88;7.07;;;12.50;58.90;;;;;;5009760;28;20029;-74
2022/01/24 14:06:25;;;;;;;11.63;7.40;;;12.30;58.50;;;;;;5002928;28;20022;-70
2022/01/24 14:09:09;;;;;;;13.88;8.30;;;12.20;58.80;;;;;;5000437;28;20029;-70
2022/01/24 14:11:49;;;;;;;12.02;8.02;;;12.20;59.80;;;;;;5007512;28;20034;-65
2022/01/24 14:14:19;;;;;;;12.25;7.72;;;12.10;58.70;;;;;;5004919;28;20018;-65
2022/01/24 14:17:01;;;;;;;9.73;6.32;;;12.00;59.60;;;;;;5009338;28;20077;-65
2022/01/24 14:19:32;;;;;;;11.80;7.70;;;11.90;59.80;;;;;;4998736;28;20121;-65
2022/01/24 14:22:09;;;;;;;13.52;7.47;;;11.80;60.20;;;;;;4995951;28;20038;-65
2022/01/24 14:24:54;;;;;;;12.07;7.70;;;11.80;60.70;;;;;;5005376;28;20022;-65
2022/01/24 14:27:40;;;;;;;12.05;8.18;;;11.80;61.30;;;;;;5007295;28;20034;-65
2022/01/24 14:30:07;;;;;;;11.13;7.43;;;11.70;60.10;;;;;;4998011;28;20097;-64
2022/01/24 14:32:35;;;;;;;12.35;7.75;;;11.60;60.50;;;;;;5002124;28;20400;-64
2022/01/24 14:35:06;;;;;;;12.85;7.57;;;11.40;60.70;;;;;;4996629;28;20037;-64
2022/01/24 14:37:53;;;;;;;9.45;6.50;;;11.30;61.10;;;;;;5005800;28;20038;-64
2022/01/24 14:40:35;;;;;;;11.63;7.75;;;11.20;62.10;;;;;;4996307;28;20038;-65
2022/01/24 14:45:46;;;;;;;12.52;7.18;;;11.10;61.70;;;;;;5008537;28;20507;-65
2022/01/24 14:48:12;;;;;;;12.23;8.02;;;11.00;61.70;;;;;;4999634;28;20034;-65
2022/01/24 14:50:38;;;;;;;14.05;7.65;;;10.80;62.30;;;;;;5000198;28;20037;-65
2022/01/24 14:53:06;;;;;;;14.52;7.85;;;10.80;62.80;;;;;;5009018;28;20121;-65
2022/01/24 14:55:32;;;;;;;12.40;7.45;;;10.70;62.70;;;;;;4997657;28;20053;-65
2022/01/24 14:57:58;;;;;;;11.27;7.20;;;10.70;62.90;;;;;;4997872;28;20480;-64
2022/01/24 15:00:26;;;;;;;11.25;7.10;;;10.70;63.20;;;;;;5007095;28;20056;-65
2022/01/24 15:02:52;;;;;;;11.52;6.82;;;10.80;63.50;;;;;;5002014;28;20046;-66
2022/01/24 15:05:18;;;;;;;11.88;7.03;;;10.80;63.20;;;;;;4998893;28;20026;-66
2022/01/24 15:07:44;;;;;;;10.88;6.43;;;10.90;63.00;;;;;;4999309;28;20112;-65
2022/01/24 15:10:10;;;;;;;12.15;6.90;;;10.90;63.00;;;;;;4994556;28;20182;-65